sensor_id;sensor_type;location;lat;lon;timestamp;pressure;altitude;pressure_sealevel;temperature;humidity
13080;BME280;6606;49.154;9.280;2023-07-16T00:01:22;99452.03;;;20.06;100.00
13080;BME280;6606;49.154;9.280;2023-07-16T00:04:04;99431.25;;;19.98;100.00
13080;BME280;6606;49.154;9.280;2023-07-16T00:06:46;99416.09;;;19.97;100.00
13080;BME280;6606;49.154;9.280;2023-07-16T00:09:29;99414.81;;;20.01;100.00
13080;BME280;6606;49.154;9.280;2023-07-16T00:12:11;99386.91;;;20.02;100.00
13080;BME280;6606;49.154;9.280;2023-07-16T00:14:53;99406.59;;;20.03;100.00
13080;BME280;6606;49.154;9.280;2023-07-16T00:17:35;99412.25;;;20.09;100.00
13080;BME280;6606;49.154;9.280;2023-07-16T00:20:17;99410.41;;;20.10;100.00
13080;BME280;6606;49.154;9.280;2023-07-16T00:22:59;99433.06;;;20.07;100.00
13080;BME280;6606;49.154;9.280;2023-07-16T00:25:42;99429.13;;;20.11;100.00
13080;BME280;6606;49.154;9.280;2023-07-16T00:28:24;99448.50;;;20.05;100.00
13080;BME280;6606;49.154;9.280;2023-07-16T00:31:06;99429.25;;;20.00;100.00
13080;BME280;6606;49.154;9.280;2023-07-16T00:33:49;99426.84;;;19.97;100.00
13080;BME280;6606;49.154;9.280;2023-07-16T00:36:33;99430.25;;;19.89;100.00
13080;BME280;6606;49.154;9.280;2023-07-16T00:39:16;99426.00;;;19.87;100.00
13080;BME280;6606;49.154;9.280;2023-07-16T00:42:00;99405.34;;;19.77;100.00
13080;BME280;6606;49.154;9.280;2023-07-16T00:44:41;99403.81;;;19.85;100.00
13080;BME280;6606;49.154;9.280;2023-07-16T00:47:23;99387.50;;;19.96;100.00
13080;BME280;6606;49.154;9.280;2023-07-16T00:50:06;99399.66;;;20.00;100.00
13080;BME280;6606;49.154;9.280;2023-07-16T00:52:49;99397.38;;;20.05;100.00
13080;BME280;6606;49.154;9.280;2023-07-16T00:55:31;99404.19;;;20.09;100.00
13080;BME280;6606;49.154;9.280;2023-07-16T00:58:15;99394.44;;;19.98;100.00
13080;BME280;6606;49.154;9.280;2023-07-16T01:00:56;99406.88;;;20.09;100.00
13080;BME280;6606;49.154;9.280;2023-07-16T01:03:38;99397.09;;;20.08;100.00
13080;BME280;6606;49.154;9.280;2023-07-16T01:06:25;99392.41;;;20.10;100.00
13080;BME280;6606;49.154;9.280;2023-07-16T01:09:15;99388.03;;;20.09;100.00
13080;BME280;6606;49.154;9.280;2023-07-16T01:11:58;99387.47;;;20.06;100.00
13080;BME280;6606;49.154;9.280;2023-07-16T01:14:43;99415.81;;;19.90;100.00
13080;BME280;6606;49.154;9.280;2023-07-16T01:17:25;99443.56;;;19.91;100.00
13080;BME280;6606;49.154;9.280;2023-07-16T01:20:08;99473.31;;;19.80;100.00
13080;BME280;6606;49.154;9.280;2023-07-16T01:23:03;99468.19;;;19.76;100.00
13080;BME280;6606;49.154;9.280;2023-07-16T01:26:04;99453.75;;;19.68;100.00
13080;BME280;6606;49.154;9.280;2023-07-16T01:32:05;99472.28;;;19.61;100.00
13080;BME280;6606;49.154;9.280;2023-07-16T01:34:52;99474.28;;;19.79;100.00
13080;BME280;6606;49.154;9.280;2023-07-16T01:37:36;99482.03;;;19.62;100.00
13080;BME280;6606;49.154;9.280;2023-07-16T01:40:18;99488.25;;;19.63;100.00
13080;BME280;6606;49.154;9.280;2023-07-16T01:42:59;99496.47;;;19.61;100.00
13080;BME280;6606;49.154;9.280;2023-07-16T01:45:41;99486.53;;;19.52;100.00
13080;BME280;6606;49.154;9.280;2023-07-16T01:48:33;99481.47;;;19.59;100.00
13080;BME280;6606;49.154;9.280;2023-07-16T01:51:16;99499.00;;;19.53;100.00
13080;BME280;6606;49.154;9.280;2023-07-16T01:54:00;99498.72;;;19.56;100.00
13080;BME280;6606;49.154;9.280;2023-07-16T01:56:42;99503.34;;;19.44;100.00
13080;BME280;6606;49.154;9.280;2023-07-16T01:59:24;99492.31;;;19.38;100.00
13080;BME280;6606;49.154;9.280;2023-07-16T02:02:10;99489.34;;;19.41;100.00
13080;BME280;6606;49.154;9.280;2023-07-16T02:04:54;99502.06;;;19.39;100.00
13080;BME280;6606;49.154;9.280;2023-07-16T02:07:36;99508.00;;;19.32;100.00
13080;BME280;6606;49.154;9.280;2023-07-16T02:10:20;99497.78;;;19.26;100.00
13080;BME280;6606;49.154;9.280;2023-07-16T02:13:02;99507.56;;;19.27;100.00
13080;BME280;6606;49.154;9.280;2023-07-16T02:15:44;99509.94;;;19.21;100.00
13080;BME280;6606;49.154;9.280;2023-07-16T02:18:25;99517.16;;;19.20;100.00
13080;BME280;6606;49.154;9.280;2023-07-16T02:21:08;99519.28;;;19.26;100.00
13080;BME280;6606;49.154;9.280;2023-07-16T02:23:50;99537.25;;;19.26;100.00
13080;BME280;6606;49.154;9.280;2023-07-16T02:26:32;99530.75;;;19.28;100.00
13080;BME280;6606;49.154;9.280;2023-07-16T02:29:14;99533.88;;;19.24;100.00
13080;BME280;6606;49.154;9.280;2023-07-16T02:31:56;99531.19;;;19.33;100.00
13080;BME280;6606;49.154;9.280;2023-07-16T02:34:40;99516.59;;;19.26;100.00
13080;BME280;6606;49.154;9.280;2023-07-16T02:37:23;99520.44;;;19.33;100.00
13080;BME280;6606;49.154;9.280;2023-07-16T02:40:06;99519.72;;;19.31;100.00
13080;BME280;6606;49.154;9.280;2023-07-16T02:42:49;99525.81;;;19.33;100.00
13080;BME280;6606;49.154;9.280;2023-07-16T02:45:33;99530.34;;;19.33;100.00
13080;BME280;6606;49.154;9.280;2023-07-16T02:48:15;99543.75;;;19.23;100.00
13080;BME280;6606;49.154;9.280;2023-07-16T02:50:56;99540.78;;;19.26;100.00
13080;BME280;6606;49.154;9.280;2023-07-16T02:53:39;99548.94;;;19.15;100.00
13080;BME280;6606;49.154;9.280;2023-07-16T02:56:21;99538.19;;;19.15;100.00
13080;BME280;6606;49.154;9.280;2023-07-16T02:59:03;99539.91;;;19.16;100.00
13080;BME280;6606;49.154;9.280;2023-07-16T03:01:45;99539.91;;;19.16;100.00
13080;BME280;6606;49.154;9.280;2023-07-16T03:04:27;99542.44;;;19.08;100.00
13080;BME280;6606;49.154;9.280;2023-07-16T03:07:09;99535.34;;;19.07;100.00
13080;BME280;6606;49.154;9.280;2023-07-16T03:09:52;99538.56;;;19.01;100.00
13080;BME280;6606;49.154;9.280;2023-07-16T03:12:34;99539.28;;;19.03;100.00
13080;BME280;6606;49.154;9.280;2023-07-16T03:15:16;99543.94;;;19.01;100.00
13080;BME280;6606;49.154;9.280;2023-07-16T03:17:57;99533.94;;;19.03;100.00
13080;BME280;6606;49.154;9.280;2023-07-16T03:20:39;99529.53;;;19.02;100.00
13080;BME280;6606;49.154;9.280;2023-07-16T03:23:23;99537.56;;;19.02;100.00
13080;BME280;6606;49.154;9.280;2023-07-16T03:26:06;99529.13;;;19.06;100.00
13080;BME280;6606;49.154;9.280;2023-07-16T03:28:48;99535.16;;;18.99;100.00
13080;BME280;6606;49.154;9.280;2023-07-16T03:31:31;99535.34;;;19.07;100.00
13080;BME280;6606;49.154;9.280;2023-07-16T03:34:13;99552.72;;;19.03;100.00
13080;BME280;6606;49.154;9.280;2023-07-16T03:36:55;99558.56;;;19.08;100.00
13080;BME280;6606;49.154;9.280;2023-07-16T03:39:37;99567.56;;;19.07;100.00
13080;BME280;6606;49.154;9.280;2023-07-16T03:42:21;99567.94;;;18.93;100.00
13080;BME280;6606;49.154;9.280;2023-07-16T03:45:05;99566.41;;;19.00;100.00
13080;BME280;6606;49.154;9.280;2023-07-16T03:47:47;99573.50;;;19.01;100.00
13080;BME280;6606;49.154;9.280;2023-07-16T03:50:28;99580.28;;;19.05;100.00
13080;BME280;6606;49.154;9.280;2023-07-16T03:53:10;99587.66;;;19.03;100.00
13080;BME280;6606;49.154;9.280;2023-07-16T03:55:52;99597.22;;;18.96;100.00
13080;BME280;6606;49.154;9.280;2023-07-16T03:58:35;99592.63;;;18.86;100.00
13080;BME280;6606;49.154;9.280;2023-07-16T04:01:19;99586.88;;;18.91;100.00
13080;BME280;6606;49.154;9.280;2023-07-16T04:04:01;99594.72;;;19.04;100.00
13080;BME280;6606;49.154;9.280;2023-07-16T04:06:44;99611.84;;;19.03;100.00
13080;BME280;6606;49.154;9.280;2023-07-16T04:09:25;99617.19;;;19.03;100.00
13080;BME280;6606;49.154;9.280;2023-07-16T04:12:07;99622.81;;;19.00;100.00
13080;BME280;6606;49.154;9.280;2023-07-16T04:14:55;99625.25;;;19.03;100.00
13080;BME280;6606;49.154;9.280;2023-07-16T04:17:37;99636.88;;;19.13;100.00
13080;BME280;6606;49.154;9.280;2023-07-16T04:20:19;99653.00;;;19.13;100.00
13080;BME280;6606;49.154;9.280;2023-07-16T04:23:01;99655.28;;;19.08;100.00
13080;BME280;6606;49.154;9.280;2023-07-16T04:25:43;99653.56;;;19.07;100.00
13080;BME280;6606;49.154;9.280;2023-07-16T04:28:25;99646.50;;;19.06;100.00
13080;BME280;6606;49.154;9.280;2023-07-16T04:31:08;99644.00;;;19.14;100.00
13080;BME280;6606;49.154;9.280;2023-07-16T04:33:50;99654.19;;;19.20;100.00
13080;BME280;6606;49.154;9.280;2023-07-16T04:36:31;99654.19;;;19.20;100.00
13080;BME280;6606;49.154;9.280;2023-07-16T04:39:13;99642.88;;;19.17;100.00
13080;BME280;6606;49.154;9.280;2023-07-16T04:41:55;99659.00;;;19.17;100.00
13080;BME280;6606;49.154;9.280;2023-07-16T04:44:36;99655.66;;;19.24;100.00
13080;BME280;6606;49.154;9.280;2023-07-16T04:47:19;99671.31;;;19.19;100.00
13080;BME280;6606;49.154;9.280;2023-07-16T04:50:01;99666.56;;;19.32;100.00
13080;BME280;6606;49.154;9.280;2023-07-16T04:52:43;99661.66;;;19.38;100.00
13080;BME280;6606;49.154;9.280;2023-07-16T04:55:25;99662.72;;;19.25;100.00
13080;BME280;6606;49.154;9.280;2023-07-16T04:58:10;99663.34;;;19.39;100.00
13080;BME280;6606;49.154;9.280;2023-07-16T05:00:52;99682.72;;;19.42;100.00
13080;BME280;6606;49.154;9.280;2023-07-16T05:03:35;99671.03;;;19.43;100.00
13080;BME280;6606;49.154;9.280;2023-07-16T05:06:17;99688.25;;;19.41;100.00
13080;BME280;6606;49.154;9.280;2023-07-16T05:08:59;99691.97;;;19.49;100.00
13080;BME280;6606;49.154;9.280;2023-07-16T05:11:40;99695.69;;;19.58;100.00
13080;BME280;6606;49.154;9.280;2023-07-16T05:14:22;99687.91;;;19.55;100.00
13080;BME280;6606;49.154;9.280;2023-07-16T05:17:04;99696.25;;;19.52;100.00
13080;BME280;6606;49.154;9.280;2023-07-16T05:19:47;99704.38;;;19.41;100.00
13080;BME280;6606;49.154;9.280;2023-07-16T05:22:29;99709.09;;;19.48;100.00
13080;BME280;6606;49.154;9.280;2023-07-16T05:25:11;99694.44;;;19.62;100.00
13080;BME280;6606;49.154;9.280;2023-07-16T05:27:53;99699.81;;;19.83;100.00
13080;BME280;6606;49.154;9.280;2023-07-16T05:30:34;99710.25;;;19.76;100.00
13080;BME280;6606;49.154;9.280;2023-07-16T05:33:16;99722.97;;;20.05;100.00
13080;BME280;6606;49.154;9.280;2023-07-16T05:36:00;99715.78;;;20.15;100.00
13080;BME280;6606;49.154;9.280;2023-07-16T05:38:42;99710.06;;;19.99;100.00
13080;BME280;6606;49.154;9.280;2023-07-16T05:41:23;99720.38;;;19.94;100.00
13080;BME280;6606;49.154;9.280;2023-07-16T05:44:05;99720.88;;;20.18;100.00
13080;BME280;6606;49.154;9.280;2023-07-16T05:46:47;99711.75;;;20.00;100.00
13080;BME280;6606;49.154;9.280;2023-07-16T05:49:28;99711.31;;;19.95;100.00
13080;BME280;6606;49.154;9.280;2023-07-16T05:52:12;99724.00;;;20.24;100.00
13080;BME280;6606;49.154;9.280;2023-07-16T05:54:53;99719.06;;;20.29;100.00
13080;BME280;6606;49.154;9.280;2023-07-16T05:57:35;99716.13;;;20.41;100.00
13080;BME280;6606;49.154;9.280;2023-07-16T06:00:18;99732.16;;;20.43;100.00
13080;BME280;6606;49.154;9.280;2023-07-16T06:03:01;99737.72;;;20.71;100.00
13080;BME280;6606;49.154;9.280;2023-07-16T06:05:43;99744.53;;;20.84;100.00
13080;BME280;6606;49.154;9.280;2023-07-16T06:08:26;99748.94;;;20.95;100.00
13080;BME280;6606;49.154;9.280;2023-07-16T06:11:08;99749.06;;;21.23;100.00
13080;BME280;6606;49.154;9.280;2023-07-16T06:13:49;99752.19;;;21.47;100.00
13080;BME280;6606;49.154;9.280;2023-07-16T06:16:31;99751.03;;;21.50;100.00
13080;BME280;6606;49.154;9.280;2023-07-16T06:19:13;99754.88;;;21.47;100.00
13080;BME280;6606;49.154;9.280;2023-07-16T06:21:55;99741.84;;;21.33;100.00
13080;BME280;6606;49.154;9.280;2023-07-16T06:24:38;99742.25;;;21.48;100.00
13080;BME280;6606;49.154;9.280;2023-07-16T06:27:20;99751.91;;;21.21;100.00
13080;BME280;6606;49.154;9.280;2023-07-16T06:30:02;99759.16;;;21.11;100.00
13080;BME280;6606;49.154;9.280;2023-07-16T06:32:46;99758.72;;;21.16;100.00
13080;BME280;6606;49.154;9.280;2023-07-16T06:35:28;99756.16;;;21.24;100.00
13080;BME280;6606;49.154;9.280;2023-07-16T06:38:09;99758.28;;;21.30;100.00
13080;BME280;6606;49.154;9.280;2023-07-16T06:40:53;99763.41;;;21.33;100.00
13080;BME280;6606;49.154;9.280;2023-07-16T06:43:35;99761.25;;;21.37;100.00
13080;BME280;6606;49.154;9.280;2023-07-16T06:46:16;99767.78;;;21.34;100.00
13080;BME280;6606;49.154;9.280;2023-07-16T06:48:58;99764.34;;;21.71;100.00
13080;BME280;6606;49.154;9.280;2023-07-16T06:51:40;99754.78;;;21.86;100.00
13080;BME280;6606;49.154;9.280;2023-07-16T06:54:22;99762.19;;;22.12;100.00
13080;BME280;6606;49.154;9.280;2023-07-16T06:57:05;99763.41;;;22.00;100.00
13080;BME280;6606;49.154;9.280;2023-07-16T06:59:47;99763.09;;;22.03;100.00
13080;BME280;6606;49.154;9.280;2023-07-16T07:02:29;99757.28;;;21.98;100.00
13080;BME280;6606;49.154;9.280;2023-07-16T07:05:11;99767.97;;;21.89;100.00
13080;BME280;6606;49.154;9.280;2023-07-16T07:07:53;99755.94;;;21.84;100.00
13080;BME280;6606;49.154;9.280;2023-07-16T07:10:35;99751.88;;;21.60;100.00
13080;BME280;6606;49.154;9.280;2023-07-16T07:13:19;99757.19;;;21.89;100.00
13080;BME280;6606;49.154;9.280;2023-07-16T07:16:02;99762.38;;;22.66;100.00
13080;BME280;6606;49.154;9.280;2023-07-16T07:18:44;99763.13;;;22.94;100.00
13080;BME280;6606;49.154;9.280;2023-07-16T07:21:25;99766.13;;;23.18;100.00
13080;BME280;6606;49.154;9.280;2023-07-16T07:24:07;99772.94;;;22.31;100.00
13080;BME280;6606;49.154;9.280;2023-07-16T07:26:49;99757.66;;;23.65;100.00
13080;BME280;6606;49.154;9.280;2023-07-16T07:29:32;99761.22;;;27.48;100.00
13080;BME280;6606;49.154;9.280;2023-07-16T07:32:14;99738.63;;;28.06;86.30
13080;BME280;6606;49.154;9.280;2023-07-16T07:34:55;99732.16;;;28.95;83.15
13080;BME280;6606;49.154;9.280;2023-07-16T07:37:37;99752.31;;;29.93;65.50
13080;BME280;6606;49.154;9.280;2023-07-16T07:40:19;99756.16;;;31.08;56.50
13080;BME280;6606;49.154;9.280;2023-07-16T07:43:01;99754.84;;;29.39;66.00
13080;BME280;6606;49.154;9.280;2023-07-16T07:45:44;99754.91;;;31.11;59.34
13080;BME280;6606;49.154;9.280;2023-07-16T07:48:26;99749.78;;;30.88;55.98
13080;BME280;6606;49.154;9.280;2023-07-16T07:51:08;99743.84;;;32.24;49.36
13080;BME280;6606;49.154;9.280;2023-07-16T07:53:49;99754.09;;;31.64;50.21
13080;BME280;6606;49.154;9.280;2023-07-16T07:56:31;99749.22;;;33.27;46.85
13080;BME280;6606;49.154;9.280;2023-07-16T07:59:13;99757.78;;;30.83;48.98
13080;BME280;6606;49.154;9.280;2023-07-16T08:01:56;99752.38;;;31.96;50.30
13080;BME280;6606;49.154;9.280;2023-07-16T08:04:38;99755.91;;;30.29;50.50
13080;BME280;6606;49.154;9.280;2023-07-16T08:07:20;99764.34;;;27.74;69.63
13080;BME280;6606;49.154;9.280;2023-07-16T08:10:02;99764.56;;;29.69;57.19
13080;BME280;6606;49.154;9.280;2023-07-16T08:12:44;99761.09;;;30.72;49.72
13080;BME280;6606;49.154;9.280;2023-07-16T08:15:25;99763.56;;;31.94;44.67
13080;BME280;6606;49.154;9.280;2023-07-16T08:18:09;99760.75;;;32.14;42.62
13080;BME280;6606;49.154;9.280;2023-07-16T08:20:51;99780.75;;;28.48;57.66
13080;BME280;6606;49.154;9.280;2023-07-16T08:23:32;99769.50;;;29.59;53.29
13080;BME280;6606;49.154;9.280;2023-07-16T08:26:14;99768.84;;;31.76;45.49
13080;BME280;6606;49.154;9.280;2023-07-16T08:28:56;99761.00;;;31.00;46.34
13080;BME280;6606;49.154;9.280;2023-07-16T08:31:37;99754.78;;;30.64;45.79
13080;BME280;6606;49.154;9.280;2023-07-16T08:34:21;99740.13;;;31.98;43.95
13080;BME280;6606;49.154;9.280;2023-07-16T08:37:03;99744.53;;;28.76;52.83
13080;BME280;6606;49.154;9.280;2023-07-16T08:39:45;99737.50;;;29.25;53.89
13080;BME280;6606;49.154;9.280;2023-07-16T08:42:29;99747.53;;;31.65;44.89
13080;BME280;6606;49.154;9.280;2023-07-16T08:45:11;99759.97;;;31.87;43.18
13080;BME280;6606;49.154;9.280;2023-07-16T08:47:53;99741.81;;;28.98;52.80
13080;BME280;6606;49.154;9.280;2023-07-16T08:50:37;99739.88;;;28.70;53.47
13080;BME280;6606;49.154;9.280;2023-07-16T08:53:19;99749.84;;;26.44;63.98
13080;BME280;6606;49.154;9.280;2023-07-16T08:56:01;99750.75;;;25.15;85.85
13080;BME280;6606;49.154;9.280;2023-07-16T08:58:45;99748.75;;;25.41;83.66
13080;BME280;6606;49.154;9.280;2023-07-16T09:01:27;99754.88;;;25.43;82.00
13080;BME280;6606;49.154;9.280;2023-07-16T09:04:09;99748.41;;;25.36;81.12
13080;BME280;6606;49.154;9.280;2023-07-16T09:06:52;99762.66;;;25.38;81.06
13080;BME280;6606;49.154;9.280;2023-07-16T09:09:34;99759.31;;;26.48;77.27
13080;BME280;6606;49.154;9.280;2023-07-16T09:12:15;99758.03;;;26.67;67.04
13080;BME280;6606;49.154;9.280;2023-07-16T09:14:57;99767.47;;;26.56;78.08
13080;BME280;6606;49.154;9.280;2023-07-16T09:17:39;99763.34;;;25.57;74.34
13080;BME280;6606;49.154;9.280;2023-07-16T09:20:21;99760.03;;;26.02;76.32
13080;BME280;6606;49.154;9.280;2023-07-16T09:23:05;99751.56;;;26.37;79.37
13080;BME280;6606;49.154;9.280;2023-07-16T09:25:49;99762.00;;;26.56;77.69
13080;BME280;6606;49.154;9.280;2023-07-16T09:28:31;99766.28;;;26.82;76.47
13080;BME280;6606;49.154;9.280;2023-07-16T09:31:13;99767.13;;;26.82;66.44
13080;BME280;6606;49.154;9.280;2023-07-16T09:33:57;99759.47;;;27.09;73.84
13080;BME280;6606;49.154;9.280;2023-07-16T09:36:39;99753.94;;;26.71;71.52
13080;BME280;6606;49.154;9.280;2023-07-16T09:39:22;99750.44;;;26.23;74.31
13080;BME280;6606;49.154;9.280;2023-07-16T09:42:05;99766.66;;;25.83;73.11
13080;BME280;6606;49.154;9.280;2023-07-16T09:44:48;99752.44;;;25.65;69.77
13080;BME280;6606;49.154;9.280;2023-07-16T09:47:30;99753.91;;;26.40;73.75
13080;BME280;6606;49.154;9.280;2023-07-16T09:50:12;99756.78;;;26.46;73.16
13080;BME280;6606;49.154;9.280;2023-07-16T09:52:55;99760.03;;;26.42;66.10
13080;BME280;6606;49.154;9.280;2023-07-16T09:55:39;99757.06;;;26.20;68.67
13080;BME280;6606;49.154;9.280;2023-07-16T09:58:21;99751.19;;;26.00;69.53
13080;BME280;6606;49.154;9.280;2023-07-16T10:01:03;99744.66;;;25.37;69.03
13080;BME280;6606;49.154;9.280;2023-07-16T10:03:49;99751.88;;;26.02;78.54
13080;BME280;6606;49.154;9.280;2023-07-16T10:06:31;99753.19;;;26.46;77.58
13080;BME280;6606;49.154;9.280;2023-07-16T10:09:13;99739.34;;;26.32;68.28
13080;BME280;6606;49.154;9.280;2023-07-16T10:12:07;99738.59;;;26.47;76.57
13080;BME280;6606;49.154;9.280;2023-07-16T10:14:50;99739.50;;;26.39;64.68
13080;BME280;6606;49.154;9.280;2023-07-16T10:17:32;99739.84;;;26.67;67.05
13080;BME280;6606;49.154;9.280;2023-07-16T10:20:14;99740.97;;;26.50;59.08
13080;BME280;6606;49.154;9.280;2023-07-16T10:22:56;99748.31;;;26.02;69.00
13080;BME280;6606;49.154;9.280;2023-07-16T10:25:39;99745.31;;;26.28;60.24
13080;BME280;6606;49.154;9.280;2023-07-16T10:28:22;99735.63;;;26.34;58.19
13080;BME280;6606;49.154;9.280;2023-07-16T10:31:04;99735.03;;;26.15;67.70
13080;BME280;6606;49.154;9.280;2023-07-16T10:33:58;99746.28;;;25.96;78.85
13080;BME280;6606;49.154;9.280;2023-07-16T10:36:40;99751.53;;;26.45;63.04
13080;BME280;6606;49.154;9.280;2023-07-16T10:39:22;99733.31;;;26.14;61.27
13080;BME280;6606;49.154;9.280;2023-07-16T10:42:04;99754.44;;;26.74;64.53
13080;BME280;6606;49.154;9.280;2023-07-16T10:44:53;99736.31;;;26.90;56.76
13080;BME280;6606;49.154;9.280;2023-07-16T10:47:36;99729.34;;;27.10;61.23
13080;BME280;6606;49.154;9.280;2023-07-16T10:50:19;99719.81;;;27.67;61.98
13080;BME280;6606;49.154;9.280;2023-07-16T10:53:01;99726.78;;;27.70;61.03
13080;BME280;6606;49.154;9.280;2023-07-16T10:55:44;99723.19;;;27.54;53.34
13080;BME280;6606;49.154;9.280;2023-07-16T10:58:26;99725.97;;;27.31;57.36
13080;BME280;6606;49.154;9.280;2023-07-16T11:01:09;99722.28;;;27.77;62.43
13080;BME280;6606;49.154;9.280;2023-07-16T11:03:51;99717.22;;;28.03;55.02
13080;BME280;6606;49.154;9.280;2023-07-16T11:06:33;99725.19;;;27.23;61.50
13080;BME280;6606;49.154;9.280;2023-07-16T11:09:16;99714.13;;;28.06;57.54
13080;BME280;6606;49.154;9.280;2023-07-16T11:12:05;99708.06;;;27.37;53.23
13080;BME280;6606;49.154;9.280;2023-07-16T11:14:48;99728.56;;;27.25;56.95
13080;BME280;6606;49.154;9.280;2023-07-16T11:17:32;99717.44;;;27.87;51.96
13080;BME280;6606;49.154;9.280;2023-07-16T11:20:13;99714.31;;;27.90;53.79
13080;BME280;6606;49.154;9.280;2023-07-16T11:22:57;99708.59;;;27.32;57.70
13080;BME280;6606;49.154;9.280;2023-07-16T11:25:39;99708.44;;;26.34;62.15
13080;BME280;6606;49.154;9.280;2023-07-16T11:28:21;99706.09;;;26.22;65.54
13080;BME280;6606;49.154;9.280;2023-07-16T11:31:10;99699.56;;;26.94;65.41
13080;BME280;6606;49.154;9.280;2023-07-16T11:33:53;99701.19;;;27.41;69.79
13080;BME280;6606;49.154;9.280;2023-07-16T11:36:41;99714.41;;;27.06;69.68
13080;BME280;6606;49.154;9.280;2023-07-16T11:39:25;99709.03;;;27.89;61.45
13080;BME280;6606;49.154;9.280;2023-07-16T11:42:09;99700.25;;;28.23;59.33
13080;BME280;6606;49.154;9.280;2023-07-16T11:44:51;99697.06;;;27.60;53.90
13080;BME280;6606;49.154;9.280;2023-07-16T11:47:33;99696.19;;;26.92;59.67
13080;BME280;6606;49.154;9.280;2023-07-16T11:50:16;99682.22;;;26.72;61.84
13080;BME280;6606;49.154;9.280;2023-07-16T11:53:00;99697.44;;;26.81;62.75
13080;BME280;6606;49.154;9.280;2023-07-16T11:55:42;99679.78;;;27.23;60.80
13080;BME280;6606;49.154;9.280;2023-07-16T11:58:24;99696.91;;;27.61;71.84
13080;BME280;6606;49.154;9.280;2023-07-16T12:01:06;99687.53;;;27.79;62.07
13080;BME280;6606;49.154;9.280;2023-07-16T12:03:48;99686.53;;;28.31;61.55
13080;BME280;6606;49.154;9.280;2023-07-16T12:06:31;99683.84;;;26.81;61.00
13080;BME280;6606;49.154;9.280;2023-07-16T12:09:13;99689.16;;;26.74;71.26
13080;BME280;6606;49.154;9.280;2023-07-16T12:11:54;99675.13;;;27.76;70.82
13080;BME280;6606;49.154;9.280;2023-07-16T12:14:36;99672.31;;;28.36;57.47
13080;BME280;6606;49.154;9.280;2023-07-16T12:17:18;99664.00;;;28.59;54.42
13080;BME280;6606;49.154;9.280;2023-07-16T12:20:00;99678.22;;;28.39;59.59
13080;BME280;6606;49.154;9.280;2023-07-16T12:22:43;99672.69;;;27.96;53.15
13080;BME280;6606;49.154;9.280;2023-07-16T12:25:25;99672.63;;;28.26;54.94
13080;BME280;6606;49.154;9.280;2023-07-16T12:28:06;99665.84;;;27.86;53.87
13080;BME280;6606;49.154;9.280;2023-07-16T12:30:48;99662.44;;;27.39;56.69
13080;BME280;6606;49.154;9.280;2023-07-16T12:33:30;99670.06;;;27.73;57.07
13080;BME280;6606;49.154;9.280;2023-07-16T12:36:12;99659.53;;;28.51;57.64
13080;BME280;6606;49.154;9.280;2023-07-16T12:38:55;99662.75;;;28.25;52.46
13080;BME280;6606;49.154;9.280;2023-07-16T12:41:37;99661.09;;;28.24;52.05
13080;BME280;6606;49.154;9.280;2023-07-16T12:44:19;99660.47;;;28.86;48.95
13080;BME280;6606;49.154;9.280;2023-07-16T12:47:00;99658.38;;;29.66;46.86
13080;BME280;6606;49.154;9.280;2023-07-16T12:49:42;99658.63;;;30.13;47.84
13080;BME280;6606;49.154;9.280;2023-07-16T12:52:24;99652.88;;;30.49;47.70
13080;BME280;6606;49.154;9.280;2023-07-16T12:55:07;99655.47;;;30.84;47.14
13080;BME280;6606;49.154;9.280;2023-07-16T12:57:49;99659.56;;;29.57;47.96
13080;BME280;6606;49.154;9.280;2023-07-16T13:00:31;99668.94;;;28.70;53.62
13080;BME280;6606;49.154;9.280;2023-07-16T13:03:13;99660.72;;;28.12;50.94
13080;BME280;6606;49.154;9.280;2023-07-16T13:05:56;99658.88;;;27.53;53.07
13080;BME280;6606;49.154;9.280;2023-07-16T13:08:38;99650.31;;;27.86;51.95
13080;BME280;6606;49.154;9.280;2023-07-16T13:11:21;99651.28;;;28.66;52.71
13080;BME280;6606;49.154;9.280;2023-07-16T13:14:03;99656.94;;;29.35;48.70
13080;BME280;6606;49.154;9.280;2023-07-16T13:16:45;99653.78;;;29.39;49.55
13080;BME280;6606;49.154;9.280;2023-07-16T13:19:26;99647.09;;;29.13;48.57
13080;BME280;6606;49.154;9.280;2023-07-16T13:22:08;99643.94;;;29.16;49.98
13080;BME280;6606;49.154;9.280;2023-07-16T13:24:50;99643.47;;;27.90;53.35
13080;BME280;6606;49.154;9.280;2023-07-16T13:27:33;99651.06;;;27.21;59.18
13080;BME280;6606;49.154;9.280;2023-07-16T13:30:15;99644.78;;;28.45;53.61
13080;BME280;6606;49.154;9.280;2023-07-16T13:32:57;99639.53;;;28.29;50.92
13080;BME280;6606;49.154;9.280;2023-07-16T13:35:39;99644.50;;;27.59;54.97
13080;BME280;6606;49.154;9.280;2023-07-16T13:38:20;99642.91;;;27.12;60.84
13080;BME280;6606;49.154;9.280;2023-07-16T13:41:02;99642.44;;;27.32;59.51
13080;BME280;6606;49.154;9.280;2023-07-16T13:43:46;99632.28;;;27.40;57.42
13080;BME280;6606;49.154;9.280;2023-07-16T13:46:27;99625.66;;;28.24;54.26
13080;BME280;6606;49.154;9.280;2023-07-16T13:49:09;99633.72;;;27.66;53.18
13080;BME280;6606;49.154;9.280;2023-07-16T13:51:51;99632.13;;;28.23;56.69
13080;BME280;6606;49.154;9.280;2023-07-16T13:54:32;99635.31;;;27.90;54.26
13080;BME280;6606;49.154;9.280;2023-07-16T13:57:14;99632.91;;;28.75;54.35
13080;BME280;6606;49.154;9.280;2023-07-16T13:59:57;99628.16;;;29.40;49.70
13080;BME280;6606;49.154;9.280;2023-07-16T14:02:40;99635.94;;;28.65;48.07
13080;BME280;6606;49.154;9.280;2023-07-16T14:05:22;99629.59;;;28.79;48.66
13080;BME280;6606;49.154;9.280;2023-07-16T14:08:04;99626.47;;;28.24;50.27
13080;BME280;6606;49.154;9.280;2023-07-16T14:10:46;99640.28;;;28.23;50.03
13080;BME280;6606;49.154;9.280;2023-07-16T14:13:28;99640.13;;;28.24;51.43
13080;BME280;6606;49.154;9.280;2023-07-16T14:16:11;99647.44;;;28.24;50.80
13080;BME280;6606;49.154;9.280;2023-07-16T14:18:53;99636.72;;;28.80;50.23
13080;BME280;6606;49.154;9.280;2023-07-16T14:21:35;99635.22;;;28.56;49.98
13080;BME280;6606;49.154;9.280;2023-07-16T14:24:17;99628.22;;;28.11;48.94
13080;BME280;6606;49.154;9.280;2023-07-16T14:26:58;99629.47;;;27.93;50.73
13080;BME280;6606;49.154;9.280;2023-07-16T14:29:42;99629.06;;;28.11;48.62